createdAt,value
2022-08-18T00:01:43.236Z,7.88
2022-08-18T00:04:34.973Z,7.50
2022-08-18T00:07:01.736Z,7.20
2022-08-18T00:09:32.490Z,7.47
2022-08-18T00:12:02.996Z,7.25
2022-08-18T00:14:31.336Z,7.82
2022-08-18T00:16:59.392Z,7.05
2022-08-18T00:19:47.619Z,7.30
2022-08-18T00:22:19.708Z,7.27
2022-08-18T00:24:50.131Z,7.65
2022-08-18T00:27:23.362Z,7.75
2022-08-18T00:29:53.406Z,7.82
2022-08-18T00:32:23.869Z,7.88
2022-08-18T00:34:52.305Z,8.60
2022-08-18T00:37:22.041Z,7.85
2022-08-18T00:39:53.420Z,8.27
2022-08-18T00:42:29.158Z,8.65
2022-08-18T00:45:02.775Z,8.38
2022-08-18T00:47:36.472Z,7.93
2022-08-18T00:52:50.898Z,7.35
2022-08-18T00:55:21.248Z,7.97
2022-08-18T00:57:54.889Z,7.22
2022-08-18T01:00:23.136Z,7.13
2022-08-18T01:02:57.581Z,7.50
2022-08-18T01:05:33.843Z,7.20
2022-08-18T01:08:04.626Z,7.95
2022-08-18T01:10:35.187Z,6.82
2022-08-18T01:13:03.801Z,7.18
2022-08-18T01:15:32.868Z,6.87
2022-08-18T01:18:21.976Z,6.68
2022-08-18T01:21:16.276Z,7.20
2022-08-18T01:23:46.966Z,6.55
2022-08-18T01:26:16.829Z,8.02
2022-08-18T01:28:46.450Z,7.60
2022-08-18T01:31:32.757Z,7.53
2022-08-18T01:34:01.336Z,7.90
2022-08-18T01:36:30.291Z,7.28
2022-08-18T01:39:00.628Z,7.00
2022-08-18T01:41:31.004Z,7.63
2022-08-18T01:44:01.231Z,6.75
2022-08-18T01:46:31.718Z,6.60
2022-08-18T01:49:01.129Z,7.03
2022-08-18T01:51:36.634Z,6.90
2022-08-18T01:54:11.776Z,6.97
2022-08-18T01:56:40.756Z,7.10
2022-08-18T01:59:14.644Z,7.60
2022-08-18T02:01:50.549Z,6.95
2022-08-18T02:04:40.849Z,7.35
2022-08-18T02:07:11.621Z,6.85
2022-08-18T02:09:42.823Z,7.97
2022-08-18T02:12:11.926Z,7.47
2022-08-18T02:14:40.843Z,7.45
2022-08-18T02:17:11.260Z,7.05
2022-08-18T02:19:41.598Z,7.10
2022-08-18T02:22:11.333Z,7.32
2022-08-18T02:24:40.944Z,8.35
2022-08-18T02:27:10.826Z,7.63
2022-08-18T02:29:39.120Z,8.20
2022-08-18T02:32:07.806Z,7.82
2022-08-18T02:34:35.901Z,7.60
2022-08-18T02:37:04.422Z,8.15
2022-08-18T02:39:34.721Z,7.67
2022-08-18T02:42:04.911Z,7.95
2022-08-18T02:44:33.471Z,7.63
2022-08-18T02:47:01.790Z,8.23
2022-08-18T02:49:29.960Z,8.38
2022-08-18T02:51:58.062Z,7.82
2022-08-18T02:54:26.709Z,7.93
2022-08-18T02:56:57.156Z,7.90
2022-08-18T02:59:31.935Z,7.32
2022-08-18T03:02:01.701Z,7.90
2022-08-18T03:04:33.284Z,7.95
2022-08-18T03:07:03.854Z,8.57
2022-08-18T03:09:32.786Z,7.95
2022-08-18T03:12:01.237Z,9.10
2022-08-18T03:14:30.923Z,8.18
2022-08-18T03:16:59.794Z,8.77
2022-08-18T03:19:29.675Z,9.18
2022-08-18T03:22:03.098Z,9.32
2022-08-18T03:24:33.172Z,8.95
2022-08-18T03:27:02.573Z,9.80
2022-08-18T03:29:33.044Z,9.20
2022-08-18T03:32:02.118Z,9.30
2022-08-18T03:34:31.574Z,9.23
2022-08-18T03:39:28.639Z,9.80
2022-08-18T03:42:00.960Z,10.00
2022-08-18T03:44:32.991Z,9.52
2022-08-18T03:47:02.994Z,8.95
2022-08-18T03:49:31.352Z,9.57
2022-08-18T03:52:00.982Z,10.35
2022-08-18T03:54:31.962Z,9.23
2022-08-18T03:57:00.566Z,9.90
2022-08-18T03:59:31.750Z,9.27
2022-08-18T04:02:04.674Z,10.20
2022-08-18T04:04:33.206Z,10.23
2022-08-18T04:07:04.712Z,10.55
2022-08-18T04:09:34.454Z,10.52
2022-08-18T04:12:10.373Z,10.18
2022-08-18T04:14:46.534Z,10.68
2022-08-18T04:17:16.096Z,10.77
2022-08-18T04:22:17.157Z,9.85
2022-08-18T04:24:46.363Z,10.90
2022-08-18T04:27:14.544Z,9.77
2022-08-18T04:29:42.575Z,9.73
2022-08-18T04:32:10.628Z,9.52
2022-08-18T04:34:39.992Z,9.27
2022-08-18T04:37:09.650Z,9.43
2022-08-18T04:39:37.898Z,9.43
2022-08-18T04:42:06.363Z,9.35
2022-08-18T04:44:34.450Z,9.23
2022-08-18T04:47:02.849Z,8.32
2022-08-18T04:49:32.067Z,9.77
2022-08-18T04:52:36.865Z,9.55
2022-08-18T04:55:07.925Z,9.15
2022-08-18T04:57:35.999Z,10.07
2022-08-18T05:00:07.423Z,11.63
2022-08-18T05:02:35.633Z,12.35
2022-08-18T05:05:04.572Z,11.63
2022-08-18T05:07:34.437Z,11.68
2022-08-18T05:10:02.544Z,11.65
2022-08-18T05:12:30.732Z,11.80
2022-08-18T05:14:58.832Z,11.27
2022-08-18T05:17:29.090Z,10.93
2022-08-18T05:19:59.942Z,11.27
2022-08-18T05:22:31.794Z,10.20
2022-08-18T05:25:01.658Z,10.23
2022-08-18T05:27:33.969Z,9.63
2022-08-18T05:30:02.570Z,10.77
2022-08-18T05:32:47.998Z,9.97
2022-08-18T05:35:21.847Z,10.70
2022-08-18T05:38:02.018Z,9.65
2022-08-18T05:40:31.868Z,11.65
2022-08-18T05:43:01.316Z,11.43
2022-08-18T05:48:01.185Z,9.57
2022-08-18T05:50:30.904Z,10.73
2022-08-18T05:53:02.163Z,10.30
2022-08-18T05:55:53.068Z,10.10
2022-08-18T05:58:32.879Z,9.80
2022-08-18T06:01:05.478Z,10.60
2022-08-18T06:03:45.488Z,9.32
2022-08-18T06:06:19.410Z,10.77
2022-08-18T06:08:57.239Z,10.18
2022-08-18T06:11:26.794Z,10.27
2022-08-18T06:13:59.111Z,8.80
2022-08-18T06:16:50.038Z,9.75
2022-08-18T06:19:39.025Z,10.07
2022-08-18T06:22:16.729Z,10.10
2022-08-18T06:24:52.606Z,9.95
2022-08-18T06:27:31.055Z,10.02
2022-08-18T06:30:07.050Z,10.43
2022-08-18T06:32:53.262Z,9.65
2022-08-18T06:35:30.850Z,9.75
2022-08-18T06:38:29.311Z,9.52
2022-08-18T06:41:03.974Z,9.20
2022-08-18T06:43:35.297Z,9.30
2022-08-18T06:46:09.093Z,10.05
2022-08-18T06:48:42.144Z,9.70
2022-08-18T06:51:13.570Z,9.27
2022-08-18T06:53:53.207Z,8.65
2022-08-18T06:56:26.013Z,9.32
2022-08-18T06:59:14.201Z,8.75
2022-08-18T07:01:43.093Z,9.40
2022-08-18T07:04:11.234Z,8.55
2022-08-18T07:06:39.308Z,8.70
2022-08-18T07:09:21.768Z,8.40
2022-08-18T07:12:06.615Z,9.25
2022-08-18T07:14:46.555Z,8.35
2022-08-18T07:17:22.170Z,8.98
2022-08-18T07:20:08.328Z,9.05
2022-08-18T07:22:55.152Z,9.38
2022-08-18T07:25:28.188Z,8.93
2022-08-18T07:27:57.177Z,8.63
2022-08-18T07:30:37.025Z,9.10
2022-08-18T07:33:14.660Z,8.73
2022-08-18T07:35:49.182Z,8.95
2022-08-18T07:38:42.083Z,8.63
2022-08-18T07:41:17.263Z,8.88
2022-08-18T07:44:00.583Z,8.65
2022-08-18T07:46:36.464Z,9.25
2022-08-18T07:49:06.388Z,7.97
2022-08-18T07:51:47.637Z,8.63
2022-08-18T07:54:49.536Z,8.45
2022-08-18T07:57:28.253Z,8.10
2022-08-18T08:00:23.132Z,7.20
2022-08-18T08:03:18.909Z,6.90
2022-08-18T08:05:54.252Z,7.30
2022-08-18T08:08:27.179Z,7.65
2022-08-18T08:11:06.162Z,7.90
2022-08-18T08:16:36.220Z,6.82
2022-08-18T08:19:36.550Z,7.03
2022-08-18T08:22:16.195Z,6.35
2022-08-18T08:24:54.918Z,6.47
2022-08-18T08:27:28.423Z,7.00
2022-08-18T08:30:03.002Z,6.97
2022-08-18T08:32:34.665Z,6.28
2022-08-18T08:35:47.364Z,5.53
2022-08-18T08:38:36.681Z,5.10
2022-08-18T08:40:55.624Z,5.18
2022-08-18T08:43:30.874Z,5.40
2022-08-18T08:46:08.187Z,5.07
2022-08-18T08:48:42.366Z,5.47
2022-08-18T08:51:30.109Z,4.63
2022-08-18T08:54:03.443Z,5.35
2022-08-18T08:56:35.981Z,4.70
2022-08-18T08:59:07.813Z,5.10
2022-08-18T09:01:43.519Z,5.03
2022-08-18T09:04:24.471Z,4.97
2022-08-18T09:07:07.454Z,5.05
2022-08-18T09:09:56.164Z,5.10
2022-08-18T09:15:38.138Z,4.43
2022-08-18T09:18:25.691Z,4.78
2022-08-18T09:21:07.162Z,4.88
2022-08-18T09:23:42.269Z,5.47
2022-08-18T09:26:40.438Z,5.28
2022-08-18T09:29:26.103Z,5.07
2022-08-18T09:32:39.820Z,4.55
2022-08-18T09:35:27.068Z,4.88
2022-08-18T09:38:20.497Z,4.80
2022-08-18T09:41:11.524Z,5.90
2022-08-18T09:43:53.325Z,4.45
2022-08-18T09:46:53.861Z,5.05
2022-08-18T09:52:59.193Z,4.95
2022-08-18T09:55:59.281Z,4.75
2022-08-18T09:58:50.324Z,5.18
2022-08-18T10:01:32.738Z,4.43
2022-08-18T10:04:30.557Z,4.53
2022-08-18T10:07:18.185Z,4.25
2022-08-18T10:10:03.405Z,5.03
2022-08-18T10:13:06.446Z,5.28
2022-08-18T10:15:42.390Z,4.72
2022-08-18T10:18:27.441Z,5.03
2022-08-18T10:21:04.800Z,4.78
2022-08-18T10:27:13.272Z,5.00
2022-08-18T10:29:52.041Z,5.07
2022-08-18T10:32:40.326Z,5.25
2022-08-18T10:35:52.159Z,5.20
2022-08-18T10:38:46.086Z,5.18
2022-08-18T10:41:30.627Z,4.80
2022-08-18T10:44:01.243Z,4.40
2022-08-18T10:46:39.614Z,4.80
2022-08-18T10:49:27.254Z,4.47
2022-08-18T10:52:37.953Z,5.07
2022-08-18T10:55:49.078Z,4.93
2022-08-18T10:58:38.169Z,4.93
2022-08-18T11:01:20.581Z,5.30
2022-08-18T11:04:14.039Z,4.70
2022-08-18T11:07:07.970Z,5.18
2022-08-18T11:09:36.949Z,5.00
2022-08-18T11:12:12.413Z,4.80
2022-08-18T11:15:22.623Z,4.38
2022-08-18T11:18:10.446Z,4.30
2022-08-18T11:20:43.255Z,4.20
2022-08-18T11:23:15.968Z,4.60
2022-08-18T11:25:45.787Z,4.40
2022-08-18T11:28:18.646Z,4.45
2022-08-18T11:30:49.603Z,4.70
2022-08-18T11:33:23.270Z,4.47
2022-08-18T11:35:58.501Z,4.20
2022-08-18T11:38:31.123Z,4.68
2022-08-18T11:41:14.228Z,4.40
2022-08-18T11:43:47.645Z,3.85
2022-08-18T11:46:28.014Z,4.57
2022-08-18T11:48:58.219Z,4.18
2022-08-18T11:51:33.508Z,4.63
2022-08-18T11:54:04.898Z,4.43
2022-08-18T11:56:35.726Z,4.60
2022-08-18T11:59:07.965Z,4.55
2022-08-18T12:01:48.586Z,5.03
2022-08-18T12:04:24.758Z,4.95
2022-08-18T12:07:02.185Z,4.32
2022-08-18T12:10:17.838Z,4.82
2022-08-18T12:12:32.551Z,5.13
2022-08-18T12:15:10.479Z,5.32
2022-08-18T12:17:52.233Z,4.63
2022-08-18T12:20:21.849Z,4.70
2022-08-18T12:22:56.653Z,5.15
2022-08-18T12:25:25.849Z,4.10
2022-08-18T12:27:54.147Z,4.63
2022-08-18T12:30:22.175Z,5.55
2022-08-18T12:32:55.502Z,5.15
2022-08-18T12:35:24.746Z,4.80
2022-08-18T12:40:45.531Z,4.50
2022-08-18T12:43:14.303Z,4.57
2022-08-18T12:45:42.961Z,4.20
2022-08-18T12:50:54.570Z,4.43
2022-08-18T12:53:58.368Z,4.35
2022-08-18T12:56:37.549Z,3.95
2022-08-18T12:59:09.030Z,4.55
2022-08-18T13:01:39.909Z,4.38
2022-08-18T13:07:01.963Z,4.28
2022-08-18T13:09:53.223Z,4.28
2022-08-18T13:12:24.163Z,4.13
2022-08-18T13:14:58.178Z,3.90
2022-08-18T13:17:34.477Z,3.78
2022-08-18T13:20:06.547Z,4.10
2022-08-18T13:22:40.957Z,4.50
2022-08-18T13:25:32.164Z,4.07
2022-08-18T13:28:03.929Z,3.88
2022-08-18T13:30:36.097Z,3.50
2022-08-18T13:33:33.773Z,4.10
2022-08-18T13:35:54.792Z,4.22
2022-08-18T13:38:26.184Z,4.00
2022-08-18T13:41:00.480Z,4.40
2022-08-18T13:43:32.101Z,4.07
2022-08-18T13:46:01.375Z,3.72
2022-08-18T13:48:29.789Z,3.97
2022-08-18T13:51:05.466Z,4.28
2022-08-18T13:53:50.610Z,4.45
2022-08-18T13:56:20.850Z,4.65
2022-08-18T13:58:59.767Z,3.63
2022-08-18T14:01:51.604Z,4.50
2022-08-18T14:04:19.962Z,4.28
2022-08-18T14:06:56.165Z,4.28
2022-08-18T14:09:36.247Z,4.32
2022-08-18T14:12:22.535Z,4.13
2022-08-18T14:14:52.478Z,4.53
2022-08-18T14:17:34.820Z,4.47
2022-08-18T14:20:24.083Z,4.00
2022-08-18T14:23:22.825Z,3.85
2022-08-18T14:26:13.333Z,4.38
2022-08-18T14:29:11.305Z,4.50
2022-08-18T14:31:46.035Z,3.80
2022-08-18T14:34:15.431Z,4.20
2022-08-18T14:36:57.062Z,4.40
2022-08-18T14:39:27.606Z,4.13
2022-08-18T14:42:04.682Z,4.00
2022-08-18T14:44:34.671Z,4.30
2022-08-18T14:47:06.085Z,4.07
2022-08-18T14:49:35.632Z,4.00
2022-08-18T14:52:13.951Z,4.07
2022-08-18T14:54:46.300Z,4.43
2022-08-18T14:59:57.370Z,3.97
2022-08-18T15:02:27.055Z,4.00
2022-08-18T15:04:58.109Z,4.10
2022-08-18T15:07:26.380Z,3.75
2022-08-18T15:10:14.795Z,3.70
2022-08-18T15:12:43.590Z,3.83
2022-08-18T15:15:18.098Z,3.90
2022-08-18T15:18:22.496Z,3.60
2022-08-18T15:21:19.560Z,3.80
2022-08-18T15:24:20.716Z,3.90
2022-08-18T15:26:51.822Z,4.53
2022-08-18T15:29:28.012Z,4.00
2022-08-18T15:32:11.725Z,3.60
2022-08-18T15:34:52.661Z,3.80
2022-08-18T15:37:22.221Z,3.65
2022-08-18T15:40:30.195Z,4.13
2022-08-18T15:43:03.939Z,4.22
2022-08-18T15:45:37.665Z,4.03
2022-08-18T15:48:12.504Z,4.03
2022-08-18T15:50:42.852Z,3.70
2022-08-18T15:53:40.036Z,3.83
2022-08-18T15:56:16.028Z,4.13
2022-08-18T15:58:49.101Z,3.85
2022-08-18T16:01:33.075Z,3.72
2022-08-18T16:04:16.933Z,4.18
2022-08-18T16:06:50.922Z,3.30
2022-08-18T16:09:21.181Z,2.78
2022-08-18T16:11:50.304Z,2.80
2022-08-18T16:14:33.001Z,2.90
2022-08-18T16:17:23.670Z,2.78
2022-08-18T16:19:58.390Z,2.95
2022-08-18T16:22:28.075Z,2.38
2022-08-18T16:25:10.486Z,2.42
2022-08-18T16:27:41.768Z,2.67
2022-08-18T16:30:15.236Z,2.75
2022-08-18T16:32:43.547Z,2.67
2022-08-18T16:35:12.368Z,2.17
2022-08-18T16:37:58.237Z,2.78
2022-08-18T16:40:28.001Z,2.60
2022-08-18T16:43:04.913Z,3.05
2022-08-18T16:45:34.547Z,2.70
2022-08-18T16:48:02.899Z,2.35
2022-08-18T16:50:31.201Z,2.80
2022-08-18T16:53:40.244Z,3.67
2022-08-18T16:56:16.368Z,3.88
2022-08-18T16:59:01.994Z,3.83
2022-08-18T17:01:48.958Z,4.05
2022-08-18T17:04:22.433Z,3.60
2022-08-18T17:06:52.996Z,5.03
2022-08-18T17:09:23.383Z,4.15
2022-08-18T17:12:09.803Z,4.03
2022-08-18T17:14:39.197Z,3.65
2022-08-18T17:17:07.655Z,3.88
2022-08-18T17:19:44.006Z,4.07
2022-08-18T17:22:13.492Z,4.00
2022-08-18T17:24:56.252Z,4.40
2022-08-18T17:27:46.138Z,4.03
2022-08-18T17:30:21.470Z,4.35
2022-08-18T17:32:58.041Z,4.18
2022-08-18T17:35:35.727Z,3.83
2022-08-18T17:38:23.315Z,3.45
2022-08-18T17:40:55.859Z,3.38
2022-08-18T17:43:29.127Z,3.55
2022-08-18T17:46:01.256Z,3.50
2022-08-18T17:48:33.468Z,2.90
2022-08-18T17:51:25.479Z,2.80
2022-08-18T17:53:53.880Z,2.75
2022-08-18T17:56:41.341Z,3.05
2022-08-18T17:59:46.144Z,2.95
2022-08-18T18:02:29.460Z,3.00
2022-08-18T18:04:59.703Z,2.22
2022-08-18T18:07:30.869Z,1.90
2022-08-18T18:10:01.583Z,2.20
2022-08-18T18:12:32.506Z,2.55
2022-08-18T18:15:31.466Z,2.35
2022-08-18T18:18:35.353Z,2.17
2022-08-18T18:21:07.215Z,1.80
2022-08-18T18:23:41.313Z,2.03
2022-08-18T18:26:28.314Z,1.77
2022-08-18T18:29:20.207Z,1.80
2022-08-18T18:31:58.479Z,2.50
2022-08-18T18:34:59.715Z,1.57
2022-08-18T18:37:32.395Z,1.80
2022-08-18T18:40:04.008Z,1.65
2022-08-18T18:42:38.014Z,1.80
2022-08-18T18:45:13.744Z,1.70
2022-08-18T18:47:50.345Z,1.60
2022-08-18T18:50:37.517Z,1.70
2022-08-18T18:53:18.805Z,1.58
2022-08-18T18:56:09.170Z,1.73
2022-08-18T18:59:05.705Z,2.08
2022-08-18T19:01:43.721Z,1.80
2022-08-18T19:04:19.260Z,1.95
2022-08-18T19:06:57.052Z,1.73
2022-08-18T19:09:36.984Z,1.75
2022-08-18T19:12:16.083Z,1.80
2022-08-18T19:14:59.539Z,1.85
2022-08-18T19:17:39.076Z,1.40
2022-08-18T19:20:12.255Z,1.92
2022-08-18T19:23:04.952Z,2.10
2022-08-18T19:25:38.453Z,1.65
2022-08-18T19:28:13.186Z,1.85
2022-08-18T19:30:51.829Z,2.00
2022-08-18T19:33:41.237Z,1.50
2022-08-18T19:36:33.556Z,2.20
2022-08-18T19:39:12.676Z,1.42
2022-08-18T19:41:49.348Z,1.83
2022-08-18T19:45:20.591Z,1.63
2022-08-18T19:48:14.025Z,1.70
2022-08-18T19:50:50.383Z,2.33
2022-08-18T19:53:40.215Z,1.60
2022-08-18T19:56:29.270Z,1.98
2022-08-18T19:59:21.638Z,1.83
2022-08-18T20:02:03.117Z,2.40
2022-08-18T20:04:48.925Z,1.95
2022-08-18T20:08:03.940Z,2.20
2022-08-18T20:11:02.990Z,2.38
2022-08-18T20:13:49.160Z,2.13
2022-08-18T20:16:43.483Z,2.40
2022-08-18T20:19:43.970Z,1.90
2022-08-18T20:22:29.268Z,2.10
2022-08-18T20:24:59.579Z,1.88
2022-08-18T20:27:44.567Z,2.08
2022-08-18T20:30:49.936Z,1.85
2022-08-18T20:33:37.342Z,2.28
2022-08-18T20:36:28.472Z,2.78
2022-08-18T20:39:12.926Z,2.53
2022-08-18T20:41:50.565Z,2.72
2022-08-18T20:45:06.336Z,2.33
2022-08-18T20:48:09.589Z,2.10
2022-08-18T20:51:25.078Z,2.92
2022-08-18T20:54:37.809Z,2.38
2022-08-18T20:57:13.568Z,2.40
2022-08-18T20:59:47.529Z,2.33
2022-08-18T21:02:48.769Z,2.83
2022-08-18T21:05:29.588Z,2.60
2022-08-18T21:08:20.500Z,2.83
2022-08-18T21:10:55.969Z,2.75
2022-08-18T21:13:38.349Z,2.28
2022-08-18T21:16:10.716Z,2.10
2022-08-18T21:18:40.210Z,2.28
2022-08-18T21:23:59.767Z,2.30
2022-08-18T21:26:44.958Z,2.38
2022-08-18T21:29:14.329Z,2.30
2022-08-18T21:31:45.672Z,2.83
2022-08-18T21:34:18.291Z,2.80
2022-08-18T21:36:54.172Z,2.30
2022-08-18T21:39:22.906Z,2.20
2022-08-18T21:42:04.491Z,2.03
2022-08-18T21:44:46.443Z,2.55
2022-08-18T21:47:22.027Z,2.40
2022-08-18T21:49:59.925Z,2.50
2022-08-18T21:52:50.497Z,2.25
2022-08-18T21:58:06.345Z,2.67
2022-08-18T22:00:37.263Z,2.50
2022-08-18T22:03:23.621Z,2.85
2022-08-18T22:06:03.764Z,2.38
2022-08-18T22:08:59.815Z,2.47
2022-08-18T22:12:00.511Z,2.63
2022-08-18T22:14:54.842Z,3.28
2022-08-18T22:17:35.154Z,2.50
2022-08-18T22:23:08.910Z,2.80
2022-08-18T22:25:38.581Z,2.38
2022-08-18T22:28:06.762Z,2.95
2022-08-18T22:30:35.221Z,3.25
2022-08-18T22:33:08.963Z,2.90
2022-08-18T22:35:40.337Z,3.03
2022-08-18T22:41:26.628Z,2.10
2022-08-18T22:43:55.475Z,2.42
2022-08-18T22:46:25.284Z,2.40
2022-08-18T22:48:55.892Z,2.10
2022-08-18T22:51:42.954Z,2.30
2022-08-18T22:54:15.381Z,2.47
2022-08-18T22:57:01.253Z,2.53
2022-08-18T22:59:37.541Z,2.45
2022-08-18T23:02:26.295Z,2.85
2022-08-18T23:04:54.316Z,2.80
2022-08-18T23:07:23.701Z,2.50
2022-08-18T23:09:59.212Z,2.85
2022-08-18T23:15:48.104Z,2.92
2022-08-18T23:18:21.501Z,2.60
2022-08-18T23:20:53.266Z,3.03
2022-08-18T23:23:28.158Z,2.78
2022-08-18T23:26:16.236Z,2.97
2022-08-18T23:29:05.256Z,2.80
2022-08-18T23:31:49.630Z,2.70
2022-08-18T23:34:19.326Z,3.03
2022-08-18T23:36:52.745Z,2.58
2022-08-18T23:39:21.724Z,2.90
2022-08-18T23:41:50.427Z,2.28
2022-08-18T23:44:18.714Z,3.08
2022-08-18T23:46:48.198Z,2.85
2022-08-18T23:51:48.869Z,2.65
2022-08-18T23:54:19.493Z,3.17
2022-08-18T23:56:49.094Z,2.95
2022-08-18T23:59:32.506Z,2.65
